createdAt,value
2018-12-21T00:02:18.300Z,52.73
2018-12-21T00:05:21.505Z,52.70
2018-12-21T00:08:24.704Z,51.27
2018-12-21T00:11:28.465Z,52.63
2018-12-21T00:14:31.694Z,48.97
2018-12-21T00:17:35.440Z,50.10
2018-12-21T00:20:38.672Z,51.23
2018-12-21T00:23:41.852Z,48.20
2018-12-21T00:26:45.026Z,50.80
2018-12-21T00:29:48.238Z,51.77
2018-12-21T00:32:57.473Z,51.50
2018-12-21T00:36:06.036Z,50.93
2018-12-21T00:39:14.819Z,53.10
2018-12-21T00:42:30.529Z,47.90
2018-12-21T00:45:36.733Z,48.90
2018-12-21T00:48:39.884Z,48.07
2018-12-21T00:51:43.078Z,50.53
2018-12-21T00:54:46.271Z,53.63
2018-12-21T00:57:49.479Z,45.53
2018-12-21T01:00:52.648Z,46.20
2018-12-21T01:03:56.064Z,44.87
2018-12-21T01:06:59.291Z,49.93
2018-12-21T01:10:02.480Z,42.40
2018-12-21T01:13:05.680Z,47.30
2018-12-21T01:16:09.463Z,43.27
2018-12-21T01:19:13.299Z,48.90
2018-12-21T01:22:16.541Z,41.77
2018-12-21T01:25:19.832Z,44.27
2018-12-21T01:28:23.562Z,41.70
2018-12-21T01:31:26.817Z,40.70
2018-12-21T01:34:30.072Z,35.80
2018-12-21T01:37:33.233Z,41.17
2018-12-21T01:40:36.482Z,40.00
2018-12-21T01:43:39.671Z,41.10
2018-12-21T01:46:43.568Z,38.07
2018-12-21T01:49:46.748Z,42.03
2018-12-21T01:52:50.456Z,41.47
2018-12-21T01:55:53.756Z,43.00
2018-12-21T01:58:56.942Z,39.20
2018-12-21T02:02:00.138Z,38.97
2018-12-21T02:05:03.512Z,39.87
2018-12-21T02:08:06.715Z,41.93
2018-12-21T02:11:11.333Z,40.40
2018-12-21T02:14:14.555Z,40.37
2018-12-21T02:17:17.747Z,43.47
2018-12-21T02:20:21.065Z,43.73
2018-12-21T02:23:24.359Z,47.33
2018-12-21T02:26:27.660Z,47.37
2018-12-21T02:29:30.832Z,48.33
2018-12-21T02:32:34.176Z,54.73
2018-12-21T02:35:37.395Z,47.90
2018-12-21T02:38:40.680Z,54.70
2018-12-21T02:41:43.982Z,53.70
2018-12-21T02:44:47.237Z,58.27
2018-12-21T02:47:50.618Z,53.00
2018-12-21T02:50:53.912Z,54.50
2018-12-21T02:53:57.164Z,59.13
2018-12-21T02:57:00.299Z,62.43
2018-12-21T03:00:04.054Z,58.27
2018-12-21T03:03:07.364Z,59.37
2018-12-21T03:06:10.525Z,66.87
2018-12-21T03:09:13.806Z,62.63
2018-12-21T03:12:16.980Z,60.90
2018-12-21T03:15:20.309Z,59.87
2018-12-21T03:18:23.615Z,66.30
2018-12-21T03:21:26.784Z,62.23
2018-12-21T03:24:30.019Z,65.80
2018-12-21T03:27:33.196Z,58.93
2018-12-21T03:30:36.470Z,63.20
2018-12-21T03:33:39.670Z,66.90
2018-12-21T03:36:42.863Z,63.10
2018-12-21T03:39:46.256Z,60.83
2018-12-21T03:42:49.499Z,58.80
2018-12-21T03:45:52.655Z,56.43
2018-12-21T03:48:55.898Z,62.63
2018-12-21T03:51:59.254Z,55.73
2018-12-21T03:55:02.464Z,57.80
2018-12-21T03:58:05.697Z,60.87
2018-12-21T04:01:09.028Z,59.73
2018-12-21T04:04:12.250Z,62.13
2018-12-21T04:07:15.545Z,58.80
2018-12-21T04:10:18.721Z,55.80
2018-12-21T04:13:21.945Z,55.70
2018-12-21T04:16:25.197Z,51.83
2018-12-21T04:19:28.552Z,55.23
2018-12-21T04:22:34.272Z,59.33
2018-12-21T04:25:37.886Z,52.93
2018-12-21T04:28:42.643Z,59.80
2018-12-21T04:31:45.927Z,60.93
2018-12-21T04:34:50.426Z,52.80
2018-12-21T04:37:53.651Z,55.97
2018-12-21T04:40:56.915Z,57.17
2018-12-21T04:44:00.823Z,52.17
2018-12-21T04:47:04.140Z,54.03
2018-12-21T04:50:08.854Z,54.13
2018-12-21T04:53:12.074Z,52.20
2018-12-21T04:56:16.279Z,53.37
2018-12-21T04:59:19.488Z,47.23
2018-12-21T05:02:22.667Z,46.80
2018-12-21T05:05:26.003Z,53.83
2018-12-21T05:08:29.169Z,53.10
2018-12-21T05:11:32.361Z,50.83
2018-12-21T05:14:35.557Z,48.73
2018-12-21T05:17:38.765Z,49.87
2018-12-21T05:20:42.075Z,46.80
2018-12-21T05:23:45.952Z,48.33
2018-12-21T05:26:49.144Z,44.13
2018-12-21T05:29:53.596Z,45.33
2018-12-21T05:32:56.767Z,41.63
2018-12-21T05:36:00.094Z,41.90
2018-12-21T05:39:04.256Z,43.27
2018-12-21T05:42:07.623Z,45.47
2018-12-21T05:45:11.359Z,45.60
2018-12-21T05:48:14.687Z,46.07
2018-12-21T05:51:17.844Z,45.67
2018-12-21T05:54:21.321Z,40.47
2018-12-21T05:57:24.493Z,45.53
2018-12-21T06:00:27.906Z,48.47
2018-12-21T06:03:31.089Z,44.73
2018-12-21T06:06:34.283Z,45.17
2018-12-21T06:09:37.468Z,48.00
2018-12-21T06:12:40.770Z,45.70
2018-12-21T06:15:45.710Z,50.30
2018-12-21T06:18:49.076Z,51.70
2018-12-21T06:21:52.478Z,49.00
2018-12-21T06:24:55.630Z,45.63
2018-12-21T06:27:58.893Z,49.47
2018-12-21T06:31:04.742Z,50.13
2018-12-21T06:34:07.957Z,45.63
2018-12-21T06:37:11.130Z,44.80
2018-12-21T06:40:14.320Z,46.87
2018-12-21T06:43:17.512Z,47.70
2018-12-21T06:46:20.812Z,43.30
2018-12-21T06:49:24.092Z,43.50
2018-12-21T06:52:27.274Z,46.03
2018-12-21T06:55:30.629Z,46.07
2018-12-21T06:58:33.818Z,47.33
2018-12-21T07:01:37.279Z,40.33
2018-12-21T07:04:40.595Z,45.27
2018-12-21T07:07:43.794Z,41.43
2018-12-21T07:10:47.219Z,47.93
2018-12-21T07:13:51.712Z,45.57
2018-12-21T07:16:55.013Z,44.07
2018-12-21T07:19:58.207Z,45.93
2018-12-21T07:23:01.406Z,48.00
2018-12-21T07:26:04.695Z,50.83
2018-12-21T07:29:07.912Z,49.40
2018-12-21T07:32:11.097Z,49.00
2018-12-21T07:35:16.302Z,45.63
2018-12-21T07:38:19.611Z,49.43
2018-12-21T07:41:22.993Z,45.13
2018-12-21T07:44:26.191Z,45.27
2018-12-21T07:47:29.539Z,44.50
2018-12-21T07:50:32.800Z,44.60
2018-12-21T07:53:36.287Z,48.77
2018-12-21T07:56:39.712Z,44.97
2018-12-21T07:59:43.026Z,41.00
2018-12-21T08:02:46.307Z,37.97
2018-12-21T08:05:49.509Z,41.20
2018-12-21T08:08:52.799Z,38.43
2018-12-21T08:11:56.056Z,40.53
2018-12-21T08:14:59.256Z,40.73
2018-12-21T08:18:02.442Z,40.00
2018-12-21T08:21:05.777Z,37.27
2018-12-21T08:24:09.137Z,37.90
2018-12-21T08:27:12.403Z,38.07
2018-12-21T08:30:15.698Z,38.03
2018-12-21T08:33:18.961Z,36.87
2018-12-21T08:36:22.479Z,34.43
2018-12-21T08:39:25.814Z,38.70
2018-12-21T08:42:29.232Z,36.93
2018-12-21T08:45:32.473Z,35.13
2018-12-21T08:48:35.641Z,39.13
2018-12-21T08:51:38.850Z,38.33
2018-12-21T08:54:42.146Z,33.97
2018-12-21T08:57:45.349Z,36.40
2018-12-21T09:00:48.534Z,37.07
2018-12-21T09:03:51.781Z,38.33
2018-12-21T09:06:55.183Z,36.00
2018-12-21T09:09:58.396Z,34.57
2018-12-21T09:13:01.631Z,37.57
2018-12-21T09:16:04.923Z,41.97
2018-12-21T09:19:08.128Z,39.57
2018-12-21T09:22:11.311Z,41.77
2018-12-21T09:25:14.705Z,40.57
2018-12-21T09:28:18.214Z,42.43
2018-12-21T09:31:21.557Z,47.10
2018-12-21T09:34:24.725Z,43.27
2018-12-21T09:37:28.006Z,42.03
2018-12-21T09:40:31.350Z,42.00
2018-12-21T09:43:34.991Z,41.57
2018-12-21T09:46:38.209Z,40.03
2018-12-21T09:49:41.382Z,45.87
2018-12-21T09:52:44.599Z,38.93
2018-12-21T09:55:47.779Z,38.10
2018-12-21T09:58:50.938Z,38.00
2018-12-21T10:01:54.192Z,38.83
2018-12-21T10:04:57.363Z,39.60
2018-12-21T10:08:00.564Z,35.80
2018-12-21T10:11:04.477Z,37.40
2018-12-21T10:14:07.694Z,40.00
2018-12-21T10:17:10.862Z,39.53
2018-12-21T10:20:14.093Z,38.70
2018-12-21T10:23:17.560Z,44.33
2018-12-21T10:26:22.568Z,41.80
2018-12-21T10:29:25.884Z,47.90
2018-12-21T10:32:29.098Z,41.77
2018-12-21T10:35:32.276Z,49.73
2018-12-21T10:38:36.796Z,50.60
2018-12-21T10:41:40.008Z,43.50
2018-12-21T10:44:43.187Z,44.20
2018-12-21T10:47:46.351Z,36.93
2018-12-21T10:50:50.992Z,42.67
2018-12-21T10:53:54.197Z,44.00
2018-12-21T10:56:57.394Z,41.70
2018-12-21T11:00:00.721Z,44.27
2018-12-21T11:03:04.020Z,40.63
2018-12-21T11:06:07.313Z,39.00
2018-12-21T11:09:10.503Z,40.93
2018-12-21T11:12:13.779Z,39.23
2018-12-21T11:15:16.971Z,36.53
2018-12-21T11:18:20.183Z,31.43
2018-12-21T11:21:23.474Z,36.03
2018-12-21T11:24:35.234Z,33.33
2018-12-21T11:27:32.112Z,32.90
2018-12-21T11:30:35.327Z,33.33
2018-12-21T11:33:38.522Z,33.40
2018-12-21T11:36:41.825Z,30.33
2018-12-21T11:39:44.998Z,27.73
2018-12-21T11:42:48.277Z,31.50
2018-12-21T11:45:51.591Z,27.10
2018-12-21T11:48:54.914Z,31.87
2018-12-21T11:51:58.357Z,24.97
2018-12-21T11:55:01.602Z,27.40
2018-12-21T11:58:05.730Z,25.93
2018-12-21T12:01:09.094Z,26.17
2018-12-21T12:04:12.433Z,23.80
2018-12-21T12:07:15.636Z,25.83
2018-12-21T12:10:18.878Z,27.57
2018-12-21T12:13:22.189Z,22.90
2018-12-21T12:16:25.382Z,20.77
2018-12-21T12:19:28.598Z,27.27
2018-12-21T12:22:31.793Z,19.73
2018-12-21T12:25:35.005Z,23.20
2018-12-21T12:28:38.267Z,18.43
2018-12-21T12:31:42.911Z,21.53
2018-12-21T12:34:46.441Z,23.37
2018-12-21T12:37:49.642Z,20.73
2018-12-21T12:40:53.119Z,19.67
2018-12-21T12:43:58.558Z,18.53
2018-12-21T12:47:01.740Z,20.10
2018-12-21T12:50:06.878Z,21.40
2018-12-21T12:53:10.077Z,21.23
2018-12-21T12:56:13.297Z,19.40
2018-12-21T12:59:16.535Z,18.50
2018-12-21T13:02:19.859Z,20.57
2018-12-21T13:05:23.132Z,20.67
2018-12-21T13:08:26.566Z,19.70
2018-12-21T13:11:29.845Z,18.53
2018-12-21T13:14:33.227Z,18.93
2018-12-21T13:17:37.720Z,21.80
2018-12-21T13:20:40.933Z,19.63
2018-12-21T13:23:44.100Z,18.00
2018-12-21T13:26:48.446Z,21.87
2018-12-21T13:29:51.735Z,18.80
2018-12-21T13:32:55.634Z,18.57
2018-12-21T13:35:58.809Z,15.93
2018-12-21T13:39:02.121Z,18.23
2018-12-21T13:42:05.384Z,19.63
2018-12-21T13:45:10.487Z,19.60
2018-12-21T13:48:13.713Z,18.37
2018-12-21T13:51:16.934Z,21.67
2018-12-21T13:54:20.362Z,17.47
2018-12-21T13:57:23.685Z,20.07
2018-12-21T14:00:27.012Z,22.77
2018-12-21T14:03:30.304Z,18.90
2018-12-21T14:06:33.607Z,17.83
2018-12-21T14:09:36.850Z,17.43
2018-12-21T14:12:40.223Z,19.30
2018-12-21T14:15:43.651Z,19.60
2018-12-21T14:18:47.036Z,15.43
2018-12-21T14:21:50.352Z,16.03
2018-12-21T14:24:53.537Z,17.93
2018-12-21T14:27:56.760Z,14.77
2018-12-21T14:31:00.097Z,17.90
2018-12-21T14:34:04.578Z,15.80
2018-12-21T14:37:07.955Z,15.80
2018-12-21T14:40:11.147Z,17.87
2018-12-21T14:43:14.813Z,15.77
2018-12-21T14:46:18.108Z,18.43
2018-12-21T14:49:21.303Z,14.57
2018-12-21T14:52:24.605Z,13.73
2018-12-21T14:55:28.149Z,14.43
2018-12-21T14:58:31.341Z,15.40
2018-12-21T15:01:34.874Z,15.73
2018-12-21T15:04:39.773Z,15.40
2018-12-21T15:07:43.069Z,16.50
2018-12-21T15:10:46.411Z,15.20
2018-12-21T15:13:49.711Z,15.70
2018-12-21T15:16:52.941Z,14.07
2018-12-21T15:19:56.138Z,21.67
2018-12-21T15:22:59.416Z,17.10
2018-12-21T15:26:02.709Z,17.90
2018-12-21T15:29:06.059Z,19.63
2018-12-21T15:32:09.436Z,17.67
2018-12-21T15:35:12.781Z,20.17
2018-12-21T15:38:17.522Z,17.70
2018-12-21T15:41:20.760Z,15.60
2018-12-21T15:44:25.357Z,17.20
2018-12-21T15:47:28.522Z,15.87
2018-12-21T15:50:31.707Z,18.07
2018-12-21T15:53:34.922Z,16.27
2018-12-21T15:56:38.124Z,17.03
2018-12-21T15:59:41.582Z,15.43
2018-12-21T16:02:48.166Z,17.57
2018-12-21T16:05:51.517Z,17.63
2018-12-21T16:08:54.866Z,14.80
2018-12-21T16:11:59.950Z,13.53
2018-12-21T16:15:03.159Z,15.90
2018-12-21T16:18:06.495Z,11.97
2018-12-21T16:21:11.468Z,13.80
2018-12-21T16:24:14.704Z,12.57
2018-12-21T16:27:18.172Z,12.33
2018-12-21T16:30:21.396Z,13.87
2018-12-21T16:33:24.669Z,13.47
2018-12-21T16:36:27.963Z,15.07
2018-12-21T16:39:32.182Z,14.00
2018-12-21T16:42:35.506Z,13.13
2018-12-21T16:45:38.793Z,14.40
2018-12-21T16:48:42.027Z,12.43
2018-12-21T16:51:45.273Z,13.30
2018-12-21T16:54:48.468Z,15.17
2018-12-21T16:57:51.668Z,13.00
2018-12-21T17:00:54.990Z,15.30
2018-12-21T17:03:58.268Z,14.70
2018-12-21T17:07:01.595Z,14.90
2018-12-21T17:10:08.589Z,12.13
2018-12-21T17:13:11.824Z,12.70
2018-12-21T17:16:15.041Z,13.37
2018-12-21T17:19:20.450Z,11.60
2018-12-21T17:22:23.767Z,12.70
2018-12-21T17:25:27.479Z,14.43
2018-12-21T17:28:30.667Z,12.80
2018-12-21T17:31:33.865Z,9.77
2018-12-21T17:34:37.159Z,11.03
2018-12-21T17:37:40.639Z,10.10
2018-12-21T17:40:43.846Z,11.20
2018-12-21T17:43:47.248Z,15.27
2018-12-21T17:46:51.736Z,10.43
2018-12-21T17:49:54.954Z,9.23
2018-12-21T17:52:58.152Z,8.20
2018-12-21T17:56:01.441Z,12.07
2018-12-21T17:59:04.777Z,10.90
2018-12-21T18:02:07.982Z,16.07
2018-12-21T18:05:11.348Z,12.57
2018-12-21T18:08:14.626Z,13.23
2018-12-21T18:11:19.071Z,13.40
2018-12-21T18:14:22.458Z,12.80
2018-12-21T18:17:25.821Z,15.83
2018-12-21T18:20:29.010Z,12.03
2018-12-21T18:23:33.288Z,18.40
2018-12-21T18:26:38.694Z,16.27
2018-12-21T18:29:43.409Z,17.03
2018-12-21T18:32:46.800Z,14.33
2018-12-21T18:35:50.169Z,20.70
2018-12-21T18:38:53.436Z,17.40
2018-12-21T18:41:57.940Z,13.97
2018-12-21T18:45:01.197Z,21.17
2018-12-21T18:48:04.614Z,14.67
2018-12-21T18:51:07.914Z,13.70
2018-12-21T18:54:11.193Z,12.97
2018-12-21T18:57:17.789Z,19.57
2018-12-21T19:00:21.036Z,20.83
2018-12-21T19:03:24.343Z,22.93
2018-12-21T19:06:27.511Z,17.57
2018-12-21T19:09:30.731Z,21.23
2018-12-21T19:12:34.030Z,24.23
2018-12-21T19:15:38.075Z,21.90
2018-12-21T19:18:41.349Z,20.93
2018-12-21T19:21:44.548Z,22.33
2018-12-21T19:24:47.848Z,28.93
2018-12-21T19:27:51.209Z,21.70
2018-12-21T19:30:54.483Z,28.70
2018-12-21T19:33:57.919Z,27.07
2018-12-21T19:37:01.847Z,32.87
2018-12-21T19:40:09.417Z,24.63
2018-12-21T19:43:12.644Z,18.33
2018-12-21T19:46:15.959Z,13.17
2018-12-21T19:49:20.285Z,18.70
2018-12-21T19:52:23.513Z,18.03
2018-12-21T19:55:47.086Z,19.37
2018-12-21T19:58:50.378Z,28.33
2018-12-21T20:01:53.678Z,26.00
2018-12-21T20:04:56.956Z,21.27
2018-12-21T20:08:00.276Z,18.87
2018-12-21T20:11:03.671Z,23.60
2018-12-21T20:14:06.898Z,28.27
2018-12-21T20:17:10.172Z,25.63
2018-12-21T20:20:13.514Z,28.60
2018-12-21T20:23:16.780Z,27.67
2018-12-21T20:26:20.271Z,31.80
2018-12-21T20:29:23.556Z,26.63
2018-12-21T20:32:26.890Z,30.83
2018-12-21T20:35:30.178Z,26.40
2018-12-21T20:38:33.410Z,24.57
2018-12-21T20:41:37.351Z,20.77
2018-12-21T20:44:40.736Z,24.57
2018-12-21T20:47:44.335Z,18.50
2018-12-21T20:50:47.736Z,21.17
2018-12-21T20:53:52.127Z,17.40
2018-12-21T20:56:59.062Z,20.43
2018-12-21T21:00:02.794Z,18.97
2018-12-21T21:03:06.219Z,21.80
2018-12-21T21:06:09.739Z,23.00
2018-12-21T21:09:14.036Z,17.43
2018-12-21T21:12:17.468Z,14.93
2018-12-21T21:15:20.850Z,15.27
2018-12-21T21:18:24.257Z,13.90
2018-12-21T21:21:27.588Z,15.17
2018-12-21T21:24:30.988Z,16.67
2018-12-21T21:27:35.283Z,15.27
2018-12-21T21:30:39.750Z,15.97
2018-12-21T21:33:43.178Z,16.57
2018-12-21T21:36:46.782Z,16.17
2018-12-21T21:39:50.447Z,17.50
2018-12-21T21:42:57.686Z,14.50
2018-12-21T21:46:00.561Z,13.13
2018-12-21T21:49:04.057Z,13.97
2018-12-21T21:52:07.581Z,14.47
2018-12-21T21:55:11.028Z,18.63
2018-12-21T21:58:14.964Z,18.53
2018-12-21T22:01:18.374Z,16.73
2018-12-21T22:04:22.020Z,15.20
2018-12-21T22:07:25.974Z,13.77
2018-12-21T22:10:29.479Z,11.77
2018-12-21T22:13:32.785Z,10.80
2018-12-21T22:16:36.616Z,9.27
2018-12-21T22:19:40.100Z,10.97
2018-12-21T22:22:43.426Z,10.10
2018-12-21T22:25:53.249Z,10.97
2018-12-21T22:28:52.338Z,10.00
2018-12-21T22:31:55.654Z,11.60
2018-12-21T22:34:58.991Z,10.30
2018-12-21T22:38:02.283Z,11.13
2018-12-21T22:41:05.628Z,11.03
2018-12-21T22:44:08.976Z,9.50
2018-12-21T22:47:12.200Z,8.53
2018-12-21T22:50:15.520Z,8.53
2018-12-21T22:53:19.703Z,8.43
2018-12-21T22:56:22.933Z,8.17
2018-12-21T22:59:26.342Z,9.33
2018-12-21T23:02:30.315Z,6.47
2018-12-21T23:05:33.686Z,6.47
2018-12-21T23:08:37.168Z,7.03
2018-12-21T23:11:40.822Z,5.73
2018-12-21T23:14:44.162Z,7.17
2018-12-21T23:17:47.567Z,5.10
2018-12-21T23:20:50.887Z,6.93
2018-12-21T23:23:54.286Z,5.53
2018-12-21T23:26:57.738Z,3.90
2018-12-21T23:30:01.219Z,4.77
2018-12-21T23:33:06.006Z,4.27
2018-12-21T23:36:10.006Z,4.40
2018-12-21T23:39:13.324Z,4.13
2018-12-21T23:42:16.678Z,4.83
2018-12-21T23:45:20.005Z,3.73
2018-12-21T23:48:23.367Z,4.93
2018-12-21T23:51:26.792Z,5.03
2018-12-21T23:54:30.081Z,4.43
2018-12-21T23:57:33.275Z,3.57
